sensor_id;sensor_type;location;lat;lon;timestamp;temperature;humidity
32650;DHT22;19055;51.064;3.712;2022-09-09T00:02:22;17.80;99.90
32650;DHT22;19055;51.064;3.712;2022-09-09T00:04:59;17.80;99.90
32650;DHT22;19055;51.064;3.712;2022-09-09T00:07:43;17.80;99.90
32650;DHT22;19055;51.064;3.712;2022-09-09T00:12:53;17.90;99.90
32650;DHT22;19055;51.064;3.712;2022-09-09T00:15:26;17.90;99.90
32650;DHT22;19055;51.064;3.712;2022-09-09T00:20:48;17.80;99.90
32650;DHT22;19055;51.064;3.712;2022-09-09T00:23:38;17.90;99.90
32650;DHT22;19055;51.064;3.712;2022-09-09T00:31:33;17.80;99.90
32650;DHT22;19055;51.064;3.712;2022-09-09T00:34:11;17.70;99.90
32650;DHT22;19055;51.064;3.712;2022-09-09T00:36:39;17.70;99.90
32650;DHT22;19055;51.064;3.712;2022-09-09T00:39:05;17.60;99.90
32650;DHT22;19055;51.064;3.712;2022-09-09T00:41:55;17.60;99.90
32650;DHT22;19055;51.064;3.712;2022-09-09T00:44:35;17.60;99.90
32650;DHT22;19055;51.064;3.712;2022-09-09T00:52:55;17.50;99.90
32650;DHT22;19055;51.064;3.712;2022-09-09T00:58:16;17.40;99.90
32650;DHT22;19055;51.064;3.712;2022-09-09T01:00:45;17.40;99.90
32650;DHT22;19055;51.064;3.712;2022-09-09T01:03:33;17.40;99.90
32650;DHT22;19055;51.064;3.712;2022-09-09T01:17:28;17.40;99.90
32650;DHT22;19055;51.064;3.712;2022-09-09T01:28:39;17.30;99.90
32650;DHT22;19055;51.064;3.712;2022-09-09T01:31:14;17.20;99.90
32650;DHT22;19055;51.064;3.712;2022-09-09T01:33:44;17.20;99.90
32650;DHT22;19055;51.064;3.712;2022-09-09T01:36:29;17.20;99.90
32650;DHT22;19055;51.064;3.712;2022-09-09T01:38:58;17.20;99.90
32650;DHT22;19055;51.064;3.712;2022-09-09T01:41:25;17.10;99.90
32650;DHT22;19055;51.064;3.712;2022-09-09T01:44:11;17.20;99.90
32650;DHT22;19055;51.064;3.712;2022-09-09T01:46:39;17.10;99.90
32650;DHT22;19055;51.064;3.712;2022-09-09T01:49:11;17.10;99.90
32650;DHT22;19055;51.064;3.712;2022-09-09T01:51:37;17.10;99.90
32650;DHT22;19055;51.064;3.712;2022-09-09T01:54:07;17.10;99.90
32650;DHT22;19055;51.064;3.712;2022-09-09T02:02:19;17.20;99.90
32650;DHT22;19055;51.064;3.712;2022-09-09T02:07:40;17.20;99.90
32650;DHT22;19055;51.064;3.712;2022-09-09T02:10:29;17.20;99.90
32650;DHT22;19055;51.064;3.712;2022-09-09T02:13:11;17.10;99.90
32650;DHT22;19055;51.064;3.712;2022-09-09T02:18:47;17.10;99.90
32650;DHT22;19055;51.064;3.712;2022-09-09T02:21:16;17.10;99.90
32650;DHT22;19055;51.064;3.712;2022-09-09T02:23:43;17.20;99.90
32650;DHT22;19055;51.064;3.712;2022-09-09T02:26:13;17.30;99.90
32650;DHT22;19055;51.064;3.712;2022-09-09T02:28:50;17.30;99.90
32650;DHT22;19055;51.064;3.712;2022-09-09T02:31:18;17.40;99.90
32650;DHT22;19055;51.064;3.712;2022-09-09T02:33:52;17.40;99.90
32650;DHT22;19055;51.064;3.712;2022-09-09T02:36:20;17.50;99.90
32650;DHT22;19055;51.064;3.712;2022-09-09T02:38:48;17.50;99.90
32650;DHT22;19055;51.064;3.712;2022-09-09T02:41:30;17.40;99.90
32650;DHT22;19055;51.064;3.712;2022-09-09T02:43:56;17.50;99.90
32650;DHT22;19055;51.064;3.712;2022-09-09T02:58:12;17.60;99.90
32650;DHT22;19055;51.064;3.712;2022-09-09T03:00:46;17.50;99.90
32650;DHT22;19055;51.064;3.712;2022-09-09T03:03:12;17.50;99.90
32650;DHT22;19055;51.064;3.712;2022-09-09T03:05:39;17.50;99.90
32650;DHT22;19055;51.064;3.712;2022-09-09T03:08:06;17.50;99.90
32650;DHT22;19055;51.064;3.712;2022-09-09T03:10:32;17.50;99.90
32650;DHT22;19055;51.064;3.712;2022-09-09T03:12:58;17.50;99.90
32650;DHT22;19055;51.064;3.712;2022-09-09T03:15:26;17.40;99.90
32650;DHT22;19055;51.064;3.712;2022-09-09T03:17:55;17.40;99.90
32650;DHT22;19055;51.064;3.712;2022-09-09T03:20:27;17.40;99.90
32650;DHT22;19055;51.064;3.712;2022-09-09T03:22:54;17.50;99.90
32650;DHT22;19055;51.064;3.712;2022-09-09T03:25:21;17.40;99.90
32650;DHT22;19055;51.064;3.712;2022-09-09T03:27:50;17.50;99.90
32650;DHT22;19055;51.064;3.712;2022-09-09T03:30:18;17.40;99.90
32650;DHT22;19055;51.064;3.712;2022-09-09T03:32:44;17.40;99.90
32650;DHT22;19055;51.064;3.712;2022-09-09T03:35:10;17.40;99.90
32650;DHT22;19055;51.064;3.712;2022-09-09T03:37:36;17.50;99.90
32650;DHT22;19055;51.064;3.712;2022-09-09T03:40:04;17.50;99.90
32650;DHT22;19055;51.064;3.712;2022-09-09T03:42:31;17.50;99.90
32650;DHT22;19055;51.064;3.712;2022-09-09T03:44:58;17.60;99.90
32650;DHT22;19055;51.064;3.712;2022-09-09T03:47:25;17.70;99.90
32650;DHT22;19055;51.064;3.712;2022-09-09T03:49:56;17.70;99.90
32650;DHT22;19055;51.064;3.712;2022-09-09T03:52:22;17.70;99.90
32650;DHT22;19055;51.064;3.712;2022-09-09T03:54:52;17.80;99.90
32650;DHT22;19055;51.064;3.712;2022-09-09T03:57:19;17.80;99.90
32650;DHT22;19055;51.064;3.712;2022-09-09T03:59:45;17.80;99.90
32650;DHT22;19055;51.064;3.712;2022-09-09T04:02:11;17.80;99.90
32650;DHT22;19055;51.064;3.712;2022-09-09T04:04:37;17.70;99.90
32650;DHT22;19055;51.064;3.712;2022-09-09T04:07:03;17.70;99.90
32650;DHT22;19055;51.064;3.712;2022-09-09T04:09:33;17.80;99.90
32650;DHT22;19055;51.064;3.712;2022-09-09T04:11:58;17.80;99.90
32650;DHT22;19055;51.064;3.712;2022-09-09T04:14:25;17.80;99.90
32650;DHT22;19055;51.064;3.712;2022-09-09T04:16:55;17.80;99.90
32650;DHT22;19055;51.064;3.712;2022-09-09T04:19:21;17.80;99.90
32650;DHT22;19055;51.064;3.712;2022-09-09T04:21:47;17.80;99.90
32650;DHT22;19055;51.064;3.712;2022-09-09T04:24:17;17.80;99.90
32650;DHT22;19055;51.064;3.712;2022-09-09T04:26:43;17.80;99.90
32650;DHT22;19055;51.064;3.712;2022-09-09T04:29:09;17.80;99.90
32650;DHT22;19055;51.064;3.712;2022-09-09T04:31:36;17.80;99.90
32650;DHT22;19055;51.064;3.712;2022-09-09T04:34:03;17.80;99.90
32650;DHT22;19055;51.064;3.712;2022-09-09T04:36:32;17.80;99.90
32650;DHT22;19055;51.064;3.712;2022-09-09T04:39:00;17.80;99.90
32650;DHT22;19055;51.064;3.712;2022-09-09T04:41:27;17.80;99.90
32650;DHT22;19055;51.064;3.712;2022-09-09T04:43:54;17.80;99.90
32650;DHT22;19055;51.064;3.712;2022-09-09T04:46:21;17.70;99.90
32650;DHT22;19055;51.064;3.712;2022-09-09T04:48:49;17.80;99.90
32650;DHT22;19055;51.064;3.712;2022-09-09T04:51:15;17.80;99.90
32650;DHT22;19055;51.064;3.712;2022-09-09T04:53:43;17.80;99.90
32650;DHT22;19055;51.064;3.712;2022-09-09T04:56:15;17.90;99.90
32650;DHT22;19055;51.064;3.712;2022-09-09T04:58:47;17.80;99.90
32650;DHT22;19055;51.064;3.712;2022-09-09T05:01:16;17.80;99.90
32650;DHT22;19055;51.064;3.712;2022-09-09T05:03:44;17.70;99.90
32650;DHT22;19055;51.064;3.712;2022-09-09T05:06:17;17.70;99.90
32650;DHT22;19055;51.064;3.712;2022-09-09T05:08:44;17.70;99.90
32650;DHT22;19055;51.064;3.712;2022-09-09T05:11:30;17.70;99.90
32650;DHT22;19055;51.064;3.712;2022-09-09T05:14:35;17.80;99.90
32650;DHT22;19055;51.064;3.712;2022-09-09T05:17:04;17.60;99.90
32650;DHT22;19055;51.064;3.712;2022-09-09T05:19:30;17.60;99.90
32650;DHT22;19055;51.064;3.712;2022-09-09T05:21:56;17.60;99.90
32650;DHT22;19055;51.064;3.712;2022-09-09T05:24:33;17.70;99.90
32650;DHT22;19055;51.064;3.712;2022-09-09T05:27:00;17.80;99.90
32650;DHT22;19055;51.064;3.712;2022-09-09T05:29:28;17.80;99.90
32650;DHT22;19055;51.064;3.712;2022-09-09T05:31:55;17.80;99.90
32650;DHT22;19055;51.064;3.712;2022-09-09T05:34:21;17.90;99.90
32650;DHT22;19055;51.064;3.712;2022-09-09T05:36:49;17.80;99.90
32650;DHT22;19055;51.064;3.712;2022-09-09T05:39:15;17.80;99.90
32650;DHT22;19055;51.064;3.712;2022-09-09T05:41:41;17.80;99.90
32650;DHT22;19055;51.064;3.712;2022-09-09T05:44:08;17.90;99.90
32650;DHT22;19055;51.064;3.712;2022-09-09T05:46:37;17.80;99.90
32650;DHT22;19055;51.064;3.712;2022-09-09T05:49:03;17.80;99.90
32650;DHT22;19055;51.064;3.712;2022-09-09T05:51:32;17.80;99.90
32650;DHT22;19055;51.064;3.712;2022-09-09T05:54:03;17.80;99.90
32650;DHT22;19055;51.064;3.712;2022-09-09T05:56:32;17.80;99.90
32650;DHT22;19055;51.064;3.712;2022-09-09T05:58:59;18.00;99.90
32650;DHT22;19055;51.064;3.712;2022-09-09T06:01:29;18.00;99.90
32650;DHT22;19055;51.064;3.712;2022-09-09T06:03:56;18.10;99.90
32650;DHT22;19055;51.064;3.712;2022-09-09T06:06:26;18.10;99.90
32650;DHT22;19055;51.064;3.712;2022-09-09T06:08:55;18.10;99.90
32650;DHT22;19055;51.064;3.712;2022-09-09T06:11:33;18.00;99.90
32650;DHT22;19055;51.064;3.712;2022-09-09T06:14:00;18.00;99.90
32650;DHT22;19055;51.064;3.712;2022-09-09T06:16:28;18.00;99.90
32650;DHT22;19055;51.064;3.712;2022-09-09T06:18:56;17.90;99.90
32650;DHT22;19055;51.064;3.712;2022-09-09T06:23:51;17.80;99.90
32650;DHT22;19055;51.064;3.712;2022-09-09T06:26:22;17.80;99.90
32650;DHT22;19055;51.064;3.712;2022-09-09T06:28:52;17.80;99.90
32650;DHT22;19055;51.064;3.712;2022-09-09T06:31:21;17.60;99.90
32650;DHT22;19055;51.064;3.712;2022-09-09T06:33:49;17.60;99.90
32650;DHT22;19055;51.064;3.712;2022-09-09T06:36:17;17.60;99.90
32650;DHT22;19055;51.064;3.712;2022-09-09T06:38:44;17.70;99.90
32650;DHT22;19055;51.064;3.712;2022-09-09T06:41:14;17.70;99.90
32650;DHT22;19055;51.064;3.712;2022-09-09T06:43:41;17.80;99.90
32650;DHT22;19055;51.064;3.712;2022-09-09T06:46:27;17.80;99.90
32650;DHT22;19055;51.064;3.712;2022-09-09T06:48:54;17.90;99.90
32650;DHT22;19055;51.064;3.712;2022-09-09T06:51:30;18.10;99.90
32650;DHT22;19055;51.064;3.712;2022-09-09T06:53:58;18.30;99.90
32650;DHT22;19055;51.064;3.712;2022-09-09T06:56:33;18.50;99.90
32650;DHT22;19055;51.064;3.712;2022-09-09T06:59:04;18.80;99.90
32650;DHT22;19055;51.064;3.712;2022-09-09T07:01:33;19.00;99.90
32650;DHT22;19055;51.064;3.712;2022-09-09T07:04:03;19.40;99.90
32650;DHT22;19055;51.064;3.712;2022-09-09T07:06:35;19.50;99.90
32650;DHT22;19055;51.064;3.712;2022-09-09T07:09:10;19.60;99.90
32650;DHT22;19055;51.064;3.712;2022-09-09T07:11:47;19.60;99.90
32650;DHT22;19055;51.064;3.712;2022-09-09T07:14:14;19.70;99.90
32650;DHT22;19055;51.064;3.712;2022-09-09T07:16:44;19.70;99.90
32650;DHT22;19055;51.064;3.712;2022-09-09T07:19:11;19.60;99.90
32650;DHT22;19055;51.064;3.712;2022-09-09T07:21:37;19.60;99.90
32650;DHT22;19055;51.064;3.712;2022-09-09T07:24:03;19.60;99.90
32650;DHT22;19055;51.064;3.712;2022-09-09T07:26:33;19.70;99.90
32650;DHT22;19055;51.064;3.712;2022-09-09T07:29:01;19.80;99.90
32650;DHT22;19055;51.064;3.712;2022-09-09T07:31:30;20.00;99.90
32650;DHT22;19055;51.064;3.712;2022-09-09T07:33:57;20.20;99.90
32650;DHT22;19055;51.064;3.712;2022-09-09T07:36:26;20.40;99.90
32650;DHT22;19055;51.064;3.712;2022-09-09T07:38:56;20.50;99.90
32650;DHT22;19055;51.064;3.712;2022-09-09T07:41:25;20.70;99.90
32650;DHT22;19055;51.064;3.712;2022-09-09T07:43:52;20.70;99.90
32650;DHT22;19055;51.064;3.712;2022-09-09T07:46:21;20.80;99.90
32650;DHT22;19055;51.064;3.712;2022-09-09T07:48:50;20.80;99.90
32650;DHT22;19055;51.064;3.712;2022-09-09T07:51:19;20.70;99.90
32650;DHT22;19055;51.064;3.712;2022-09-09T07:53:47;20.40;99.90
32650;DHT22;19055;51.064;3.712;2022-09-09T07:56:15;20.30;99.90
32650;DHT22;19055;51.064;3.712;2022-09-09T07:58:45;20.20;99.90
32650;DHT22;19055;51.064;3.712;2022-09-09T08:01:17;20.00;99.90
32650;DHT22;19055;51.064;3.712;2022-09-09T08:03:45;19.80;99.90
32650;DHT22;19055;51.064;3.712;2022-09-09T08:06:13;19.70;99.90
32650;DHT22;19055;51.064;3.712;2022-09-09T08:08:40;19.70;99.90
32650;DHT22;19055;51.064;3.712;2022-09-09T08:11:11;19.60;99.90
32650;DHT22;19055;51.064;3.712;2022-09-09T08:13:38;19.60;99.90
32650;DHT22;19055;51.064;3.712;2022-09-09T08:16:11;19.50;99.90
32650;DHT22;19055;51.064;3.712;2022-09-09T08:18:37;19.40;99.90
32650;DHT22;19055;51.064;3.712;2022-09-09T08:21:14;19.30;99.90
32650;DHT22;19055;51.064;3.712;2022-09-09T08:23:41;19.30;99.90
32650;DHT22;19055;51.064;3.712;2022-09-09T08:26:17;19.30;99.90
32650;DHT22;19055;51.064;3.712;2022-09-09T08:28:43;19.30;99.90
32650;DHT22;19055;51.064;3.712;2022-09-09T08:31:18;19.20;99.90
32650;DHT22;19055;51.064;3.712;2022-09-09T08:33:44;19.30;99.90
32650;DHT22;19055;51.064;3.712;2022-09-09T08:36:19;19.20;99.90
32650;DHT22;19055;51.064;3.712;2022-09-09T08:38:51;19.20;99.90
32650;DHT22;19055;51.064;3.712;2022-09-09T08:50:30;19.00;99.90
32650;DHT22;19055;51.064;3.712;2022-09-09T08:55:52;19.30;99.90
32650;DHT22;19055;51.064;3.712;2022-09-09T08:58:27;19.30;99.90
32650;DHT22;19055;51.064;3.712;2022-09-09T09:06:50;19.20;99.90
32650;DHT22;19055;51.064;3.712;2022-09-09T09:11:57;19.10;99.90
32650;DHT22;19055;51.064;3.712;2022-09-09T09:14:32;19.10;99.90
32650;DHT22;19055;51.064;3.712;2022-09-09T09:17:05;19.20;99.90
32650;DHT22;19055;51.064;3.712;2022-09-09T09:19:33;19.20;99.90
32650;DHT22;19055;51.064;3.712;2022-09-09T09:22:16;19.40;99.90
32650;DHT22;19055;51.064;3.712;2022-09-09T09:24:53;19.60;99.90
32650;DHT22;19055;51.064;3.712;2022-09-09T09:27:44;19.70;99.90
32650;DHT22;19055;51.064;3.712;2022-09-09T09:30:19;20.00;99.90
32650;DHT22;19055;51.064;3.712;2022-09-09T09:35:21;20.50;99.90
32650;DHT22;19055;51.064;3.712;2022-09-09T09:37:47;20.80;99.90
32650;DHT22;19055;51.064;3.712;2022-09-09T09:40:16;21.30;99.90
32650;DHT22;19055;51.064;3.712;2022-09-09T09:42:56;21.70;99.90
32650;DHT22;19055;51.064;3.712;2022-09-09T09:48:04;21.80;99.30
32650;DHT22;19055;51.064;3.712;2022-09-09T09:50:32;21.60;99.60
32650;DHT22;19055;51.064;3.712;2022-09-09T09:53:04;21.30;99.90
32650;DHT22;19055;51.064;3.712;2022-09-09T09:55:35;21.30;99.90
32650;DHT22;19055;51.064;3.712;2022-09-09T09:58:04;21.20;99.90
32650;DHT22;19055;51.064;3.712;2022-09-09T10:00:31;21.20;99.90
32650;DHT22;19055;51.064;3.712;2022-09-09T10:05:53;21.20;99.90
32650;DHT22;19055;51.064;3.712;2022-09-09T10:08:19;21.20;99.90
32650;DHT22;19055;51.064;3.712;2022-09-09T10:13:39;21.20;99.90
32650;DHT22;19055;51.064;3.712;2022-09-09T10:16:52;21.10;99.90
32650;DHT22;19055;51.064;3.712;2022-09-09T10:19:38;21.20;99.90
32650;DHT22;19055;51.064;3.712;2022-09-09T10:22:04;21.50;99.90
32650;DHT22;19055;51.064;3.712;2022-09-09T10:27:47;22.20;98.60
32650;DHT22;19055;51.064;3.712;2022-09-09T10:33:16;22.30;97.10
32650;DHT22;19055;51.064;3.712;2022-09-09T10:39:03;21.90;97.40
32650;DHT22;19055;51.064;3.712;2022-09-09T10:55:27;23.70;93.60
32650;DHT22;19055;51.064;3.712;2022-09-09T10:57:58;23.40;93.30
32650;DHT22;19055;51.064;3.712;2022-09-09T11:00:39;23.20;94.00
32650;DHT22;19055;51.064;3.712;2022-09-09T11:03:05;23.00;93.80
32650;DHT22;19055;51.064;3.712;2022-09-09T11:05:41;23.00;94.00
32650;DHT22;19055;51.064;3.712;2022-09-09T11:08:19;23.30;93.50
32650;DHT22;19055;51.064;3.712;2022-09-09T11:11:01;23.50;93.40
32650;DHT22;19055;51.064;3.712;2022-09-09T11:16:42;23.90;92.10
32650;DHT22;19055;51.064;3.712;2022-09-09T11:19:41;24.20;91.50
32650;DHT22;19055;51.064;3.712;2022-09-09T11:27:29;25.60;85.20
32650;DHT22;19055;51.064;3.712;2022-09-09T11:38:25;26.20;77.90
32650;DHT22;19055;51.064;3.712;2022-09-09T11:40:57;25.90;79.70
32650;DHT22;19055;51.064;3.712;2022-09-09T11:46:04;25.90;78.70
32650;DHT22;19055;51.064;3.712;2022-09-09T11:48:38;26.10;77.10
32650;DHT22;19055;51.064;3.712;2022-09-09T11:51:10;25.70;77.80
32650;DHT22;19055;51.064;3.712;2022-09-09T11:53:48;25.60;78.50
32650;DHT22;19055;51.064;3.712;2022-09-09T11:56:26;25.50;77.50
32650;DHT22;19055;51.064;3.712;2022-09-09T11:59:29;25.40;78.30
32650;DHT22;19055;51.064;3.712;2022-09-09T12:02:02;25.10;79.10
32650;DHT22;19055;51.064;3.712;2022-09-09T12:04:32;24.90;80.20
32650;DHT22;19055;51.064;3.712;2022-09-09T12:07:04;25.00;80.60
32650;DHT22;19055;51.064;3.712;2022-09-09T12:19:40;25.50;77.10
32650;DHT22;19055;51.064;3.712;2022-09-09T12:33:19;25.10;79.40
32650;DHT22;19055;51.064;3.712;2022-09-09T12:35:51;25.00;79.70
32650;DHT22;19055;51.064;3.712;2022-09-09T12:38:21;24.90;79.60
32650;DHT22;19055;51.064;3.712;2022-09-09T12:40:56;24.60;80.90
32650;DHT22;19055;51.064;3.712;2022-09-09T12:43:24;24.60;81.90
32650;DHT22;19055;51.064;3.712;2022-09-09T12:45:54;24.50;81.70
32650;DHT22;19055;51.064;3.712;2022-09-09T12:48:28;24.70;80.80
32650;DHT22;19055;51.064;3.712;2022-09-09T12:50:55;24.70;80.70
32650;DHT22;19055;51.064;3.712;2022-09-09T12:53:22;24.80;80.60
32650;DHT22;19055;51.064;3.712;2022-09-09T12:55:57;24.60;80.90
32650;DHT22;19055;51.064;3.712;2022-09-09T12:58:23;24.40;82.00
32650;DHT22;19055;51.064;3.712;2022-09-09T13:00:55;24.30;81.90
32650;DHT22;19055;51.064;3.712;2022-09-09T13:03:26;24.30;82.20
32650;DHT22;19055;51.064;3.712;2022-09-09T13:05:53;24.20;83.80
32650;DHT22;19055;51.064;3.712;2022-09-09T13:08:20;24.10;84.70
32650;DHT22;19055;51.064;3.712;2022-09-09T13:11:00;24.00;84.80
32650;DHT22;19055;51.064;3.712;2022-09-09T13:13:39;24.10;84.80
32650;DHT22;19055;51.064;3.712;2022-09-09T13:16:07;24.00;85.40
32650;DHT22;19055;51.064;3.712;2022-09-09T13:18:43;24.00;87.80
32650;DHT22;19055;51.064;3.712;2022-09-09T13:21:09;24.10;90.00
32650;DHT22;19055;51.064;3.712;2022-09-09T13:23:37;24.30;90.60
32650;DHT22;19055;51.064;3.712;2022-09-09T13:26:04;24.40;89.80
32650;DHT22;19055;51.064;3.712;2022-09-09T13:28:33;24.70;88.90
32650;DHT22;19055;51.064;3.712;2022-09-09T13:31:02;24.80;88.00
32650;DHT22;19055;51.064;3.712;2022-09-09T13:33:36;24.90;85.40
32650;DHT22;19055;51.064;3.712;2022-09-09T13:36:10;24.80;83.40
32650;DHT22;19055;51.064;3.712;2022-09-09T13:38:53;24.70;82.90
32650;DHT22;19055;51.064;3.712;2022-09-09T13:41:25;24.50;83.80
32650;DHT22;19055;51.064;3.712;2022-09-09T13:43:52;24.50;83.20
32650;DHT22;19055;51.064;3.712;2022-09-09T13:46:30;24.30;83.60
32650;DHT22;19055;51.064;3.712;2022-09-09T13:48:57;24.40;82.90
32650;DHT22;19055;51.064;3.712;2022-09-09T13:51:39;24.40;81.90
32650;DHT22;19055;51.064;3.712;2022-09-09T13:54:06;24.30;82.60
32650;DHT22;19055;51.064;3.712;2022-09-09T13:56:35;24.10;83.00
32650;DHT22;19055;51.064;3.712;2022-09-09T13:59:03;24.00;82.00
32650;DHT22;19055;51.064;3.712;2022-09-09T14:01:30;24.20;82.90
32650;DHT22;19055;51.064;3.712;2022-09-09T14:03:56;24.30;82.40
32650;DHT22;19055;51.064;3.712;2022-09-09T14:06:22;24.40;81.30
32650;DHT22;19055;51.064;3.712;2022-09-09T14:08:50;24.40;81.40
32650;DHT22;19055;51.064;3.712;2022-09-09T14:11:17;24.30;81.20
32650;DHT22;19055;51.064;3.712;2022-09-09T14:13:43;24.20;80.40
32650;DHT22;19055;51.064;3.712;2022-09-09T14:16:09;24.10;80.70
32650;DHT22;19055;51.064;3.712;2022-09-09T14:18:36;24.10;81.00
32650;DHT22;19055;51.064;3.712;2022-09-09T14:21:03;23.90;81.00
32650;DHT22;19055;51.064;3.712;2022-09-09T14:23:29;23.80;82.20
32650;DHT22;19055;51.064;3.712;2022-09-09T14:25:55;23.70;82.80
32650;DHT22;19055;51.064;3.712;2022-09-09T14:28:21;23.80;82.80
32650;DHT22;19055;51.064;3.712;2022-09-09T14:30:47;23.80;82.60
32650;DHT22;19055;51.064;3.712;2022-09-09T14:33:15;23.70;82.50
32650;DHT22;19055;51.064;3.712;2022-09-09T14:35:42;23.90;84.60
32650;DHT22;19055;51.064;3.712;2022-09-09T14:38:08;24.10;84.30
32650;DHT22;19055;51.064;3.712;2022-09-09T14:40:36;24.10;82.60
32650;DHT22;19055;51.064;3.712;2022-09-09T14:43:02;24.20;82.00
32650;DHT22;19055;51.064;3.712;2022-09-09T14:45:28;24.20;81.20
32650;DHT22;19055;51.064;3.712;2022-09-09T14:47:54;23.90;80.40
32650;DHT22;19055;51.064;3.712;2022-09-09T14:50:21;23.80;81.30
32650;DHT22;19055;51.064;3.712;2022-09-09T14:52:47;23.30;84.00
32650;DHT22;19055;51.064;3.712;2022-09-09T14:55:13;22.80;86.50
32650;DHT22;19055;51.064;3.712;2022-09-09T14:57:40;22.60;88.00
32650;DHT22;19055;51.064;3.712;2022-09-09T15:00:08;22.50;88.50
32650;DHT22;19055;51.064;3.712;2022-09-09T15:02:34;22.60;89.90
32650;DHT22;19055;51.064;3.712;2022-09-09T15:05:00;22.60;90.00
32650;DHT22;19055;51.064;3.712;2022-09-09T15:07:27;22.80;89.90
32650;DHT22;19055;51.064;3.712;2022-09-09T15:09:54;23.00;89.50
32650;DHT22;19055;51.064;3.712;2022-09-09T15:12:20;23.10;87.70
32650;DHT22;19055;51.064;3.712;2022-09-09T15:14:47;23.00;88.20
32650;DHT22;19055;51.064;3.712;2022-09-09T15:17:14;23.10;87.30
32650;DHT22;19055;51.064;3.712;2022-09-09T15:19:39;23.00;86.90
32650;DHT22;19055;51.064;3.712;2022-09-09T15:22:05;23.20;87.70
32650;DHT22;19055;51.064;3.712;2022-09-09T15:24:33;23.20;87.30
32650;DHT22;19055;51.064;3.712;2022-09-09T15:26:59;23.20;87.10
32650;DHT22;19055;51.064;3.712;2022-09-09T15:29:25;23.10;87.20
32650;DHT22;19055;51.064;3.712;2022-09-09T15:31:53;23.10;87.10
32650;DHT22;19055;51.064;3.712;2022-09-09T15:34:19;23.00;88.10
32650;DHT22;19055;51.064;3.712;2022-09-09T15:36:45;22.90;89.80
32650;DHT22;19055;51.064;3.712;2022-09-09T15:39:13;22.70;89.30
32650;DHT22;19055;51.064;3.712;2022-09-09T15:41:42;22.60;89.80
32650;DHT22;19055;51.064;3.712;2022-09-09T15:44:09;22.30;89.30
32650;DHT22;19055;51.064;3.712;2022-09-09T15:46:50;22.20;88.00
32650;DHT22;19055;51.064;3.712;2022-09-09T15:49:27;22.20;87.40
32650;DHT22;19055;51.064;3.712;2022-09-09T15:51:55;22.20;86.90
32650;DHT22;19055;51.064;3.712;2022-09-09T15:54:24;22.20;86.60
32650;DHT22;19055;51.064;3.712;2022-09-09T15:56:55;22.10;87.10
32650;DHT22;19055;51.064;3.712;2022-09-09T15:59:22;22.30;86.90
32650;DHT22;19055;51.064;3.712;2022-09-09T16:01:48;22.40;86.20
32650;DHT22;19055;51.064;3.712;2022-09-09T16:04:20;22.30;86.40
32650;DHT22;19055;51.064;3.712;2022-09-09T16:07:09;22.50;86.20
32650;DHT22;19055;51.064;3.712;2022-09-09T16:09:36;22.50;85.30
32650;DHT22;19055;51.064;3.712;2022-09-09T16:12:03;22.50;84.60
32650;DHT22;19055;51.064;3.712;2022-09-09T16:14:32;22.50;84.70
32650;DHT22;19055;51.064;3.712;2022-09-09T16:17:02;22.70;84.00
32650;DHT22;19055;51.064;3.712;2022-09-09T16:19:28;22.80;83.30
32650;DHT22;19055;51.064;3.712;2022-09-09T16:21:54;22.90;82.90
32650;DHT22;19055;51.064;3.712;2022-09-09T16:24:20;22.90;83.00
32650;DHT22;19055;51.064;3.712;2022-09-09T16:26:50;23.00;82.70
32650;DHT22;19055;51.064;3.712;2022-09-09T16:29:17;23.10;82.30
32650;DHT22;19055;51.064;3.712;2022-09-09T16:31:45;22.90;82.50
32650;DHT22;19055;51.064;3.712;2022-09-09T16:34:12;22.80;83.50
32650;DHT22;19055;51.064;3.712;2022-09-09T16:36:39;22.60;83.80
32650;DHT22;19055;51.064;3.712;2022-09-09T16:39:14;22.70;84.60
32650;DHT22;19055;51.064;3.712;2022-09-09T16:41:41;22.60;85.20
32650;DHT22;19055;51.064;3.712;2022-09-09T16:44:09;22.50;86.00
32650;DHT22;19055;51.064;3.712;2022-09-09T16:46:37;22.60;86.30
32650;DHT22;19055;51.064;3.712;2022-09-09T16:49:12;22.40;86.40
32650;DHT22;19055;51.064;3.712;2022-09-09T16:51:41;22.50;87.50
32650;DHT22;19055;51.064;3.712;2022-09-09T16:54:08;22.60;87.30
32650;DHT22;19055;51.064;3.712;2022-09-09T16:56:38;22.50;86.90
32650;DHT22;19055;51.064;3.712;2022-09-09T16:59:11;22.40;87.20
32650;DHT22;19055;51.064;3.712;2022-09-09T17:01:38;22.30;87.90
32650;DHT22;19055;51.064;3.712;2022-09-09T17:04:14;22.10;88.60
32650;DHT22;19055;51.064;3.712;2022-09-09T17:06:44;22.20;89.00
32650;DHT22;19055;51.064;3.712;2022-09-09T17:09:11;22.10;90.50
32650;DHT22;19055;51.064;3.712;2022-09-09T17:11:40;22.20;91.90
32650;DHT22;19055;51.064;3.712;2022-09-09T17:14:09;22.10;92.30
32650;DHT22;19055;51.064;3.712;2022-09-09T17:16:36;22.00;92.60
32650;DHT22;19055;51.064;3.712;2022-09-09T17:19:05;21.90;92.90
32650;DHT22;19055;51.064;3.712;2022-09-09T17:21:32;21.80;93.30
32650;DHT22;19055;51.064;3.712;2022-09-09T17:23:58;21.70;94.30
32650;DHT22;19055;51.064;3.712;2022-09-09T17:26:27;21.70;94.70
32650;DHT22;19055;51.064;3.712;2022-09-09T17:28:53;21.50;95.00
32650;DHT22;19055;51.064;3.712;2022-09-09T17:31:21;21.50;95.80
32650;DHT22;19055;51.064;3.712;2022-09-09T17:33:49;21.50;95.90
32650;DHT22;19055;51.064;3.712;2022-09-09T17:36:18;21.50;96.00
32650;DHT22;19055;51.064;3.712;2022-09-09T17:38:44;21.50;96.10
32650;DHT22;19055;51.064;3.712;2022-09-09T17:41:13;21.50;96.30
32650;DHT22;19055;51.064;3.712;2022-09-09T17:43:40;21.50;96.40
32650;DHT22;19055;51.064;3.712;2022-09-09T17:46:10;21.50;96.40
32650;DHT22;19055;51.064;3.712;2022-09-09T17:48:37;21.40;96.00
32650;DHT22;19055;51.064;3.712;2022-09-09T17:51:04;21.30;96.40
32650;DHT22;19055;51.064;3.712;2022-09-09T17:53:35;21.30;96.40
32650;DHT22;19055;51.064;3.712;2022-09-09T17:56:03;21.20;96.30
32650;DHT22;19055;51.064;3.712;2022-09-09T17:58:29;21.10;96.50
32650;DHT22;19055;51.064;3.712;2022-09-09T18:00:55;21.10;96.80
32650;DHT22;19055;51.064;3.712;2022-09-09T18:03:21;21.00;96.80
32650;DHT22;19055;51.064;3.712;2022-09-09T18:05:47;20.90;97.10
32650;DHT22;19055;51.064;3.712;2022-09-09T18:08:12;21.00;97.30
32650;DHT22;19055;51.064;3.712;2022-09-09T18:10:38;20.90;97.10
32650;DHT22;19055;51.064;3.712;2022-09-09T18:13:04;20.80;97.10
32650;DHT22;19055;51.064;3.712;2022-09-09T18:15:36;20.70;97.40
32650;DHT22;19055;51.064;3.712;2022-09-09T18:18:02;20.70;97.20
32650;DHT22;19055;51.064;3.712;2022-09-09T18:20:30;20.50;97.30
32650;DHT22;19055;51.064;3.712;2022-09-09T18:22:56;20.40;97.50
32650;DHT22;19055;51.064;3.712;2022-09-09T18:25:22;20.50;97.30
32650;DHT22;19055;51.064;3.712;2022-09-09T18:27:47;20.40;97.30
32650;DHT22;19055;51.064;3.712;2022-09-09T18:30:13;20.40;97.40